Terminal Aerodrome Forecast
Issued by NWS

Home | Current Version | Previous Version | Text Only | Print | Product List | Glossary On
Versions: 1 2 3 4 5 6 7 8 9 10 11 12
000
FTUS42 KMLB 282347
TAFISM
TAF
KISM 282347Z 2900/2924 16008KT P6SM FEW045
      TEMPO 2901/2902 11012KT SCT060
     FM290600 19003KT P6SM SKC
     FM291600 22005KT P6SM FEW050=

USA.gov is the U.S. government's official web portal to all federal, state and local government web resources and services.